createdAt,value
2023-01-19T00:00:53.891Z,10.30
2023-01-19T00:03:21.653Z,9.47
2023-01-19T00:05:49.001Z,10.10
2023-01-19T00:08:15.977Z,10.60
2023-01-19T00:10:51.402Z,10.10
2023-01-19T00:13:18.673Z,10.37
2023-01-19T00:15:45.690Z,10.33
2023-01-19T00:18:12.661Z,10.67
2023-01-19T00:20:40.698Z,9.93
2023-01-19T00:23:08.880Z,10.00
2023-01-19T00:25:42.266Z,10.17
2023-01-19T00:28:11.496Z,10.43
2023-01-19T00:30:39.458Z,9.87
2023-01-19T00:33:06.551Z,10.57
2023-01-19T00:35:34.759Z,10.40
2023-01-19T00:38:02.257Z,11.17
2023-01-19T00:40:29.452Z,10.40
2023-01-19T00:43:01.027Z,10.27
2023-01-19T00:45:28.901Z,10.80
2023-01-19T00:47:57.271Z,10.27
2023-01-19T00:50:26.446Z,10.90
2023-01-19T00:52:54.984Z,10.77
2023-01-19T00:55:22.607Z,11.43
2023-01-19T00:57:49.845Z,11.37
2023-01-19T01:00:19.948Z,10.67
2023-01-19T01:02:48.063Z,10.00
2023-01-19T01:05:15.469Z,10.90
2023-01-19T01:07:44.569Z,10.20
2023-01-19T01:10:13.039Z,9.73
2023-01-19T01:12:40.174Z,10.67
2023-01-19T01:15:09.509Z,9.57
2023-01-19T01:17:37.160Z,12.33
2023-01-19T01:20:05.219Z,10.33
2023-01-19T01:22:32.167Z,11.03
2023-01-19T01:24:59.062Z,10.47
2023-01-19T01:27:26.062Z,10.67
2023-01-19T01:29:52.911Z,10.80
2023-01-19T01:32:19.942Z,10.33
2023-01-19T01:34:46.817Z,9.93
2023-01-19T01:37:13.801Z,10.43
2023-01-19T01:39:40.731Z,10.97
2023-01-19T01:42:17.786Z,10.70
2023-01-19T01:44:51.058Z,11.00
2023-01-19T01:47:29.960Z,10.23
2023-01-19T01:50:10.992Z,12.50
2023-01-19T01:52:44.507Z,10.97
2023-01-19T01:55:32.436Z,10.63
2023-01-19T01:58:03.116Z,10.17
2023-01-19T02:00:54.300Z,10.83
2023-01-19T02:03:23.918Z,10.43
2023-01-19T02:05:53.551Z,11.63
2023-01-19T02:08:47.257Z,11.00
2023-01-19T02:11:33.244Z,10.07
2023-01-19T02:14:00.241Z,10.43
2023-01-19T02:16:27.274Z,10.57
2023-01-19T02:18:54.199Z,10.20
2023-01-19T02:21:30.328Z,10.47
2023-01-19T02:23:59.205Z,9.80
2023-01-19T02:26:40.241Z,9.57
2023-01-19T02:29:10.401Z,9.17
2023-01-19T02:31:39.074Z,10.30
2023-01-19T02:34:08.389Z,9.67
2023-01-19T02:36:52.153Z,9.80
2023-01-19T02:39:25.127Z,8.57
2023-01-19T02:41:55.659Z,9.57
2023-01-19T02:44:24.356Z,9.73
2023-01-19T02:46:54.384Z,10.57
2023-01-19T02:49:21.381Z,9.17
2023-01-19T02:51:48.932Z,10.57
2023-01-19T02:54:18.644Z,10.43
2023-01-19T02:57:09.921Z,10.47
2023-01-19T02:59:52.251Z,10.40
2023-01-19T03:02:37.193Z,10.50
2023-01-19T03:05:34.682Z,9.90
2023-01-19T03:08:31.337Z,10.47
2023-01-19T03:11:13.232Z,10.37
2023-01-19T03:14:04.507Z,10.63
2023-01-19T03:17:07.521Z,9.20
2023-01-19T03:19:41.456Z,10.20
2023-01-19T03:22:14.393Z,9.53
2023-01-19T03:24:44.635Z,12.10
2023-01-19T03:27:14.259Z,11.17
2023-01-19T03:29:45.111Z,9.40
2023-01-19T03:32:17.825Z,9.10
2023-01-19T03:34:46.875Z,9.30
2023-01-19T03:37:16.283Z,8.67
2023-01-19T03:39:43.406Z,7.70
2023-01-19T03:42:14.239Z,9.03
2023-01-19T03:44:43.796Z,7.80
2023-01-19T03:47:13.460Z,8.17
2023-01-19T03:49:43.186Z,8.63
2023-01-19T03:52:10.732Z,8.33
2023-01-19T03:54:37.647Z,8.27
2023-01-19T03:57:04.607Z,7.80
2023-01-19T03:59:31.504Z,8.10
2023-01-19T04:01:58.674Z,9.77
2023-01-19T04:04:25.727Z,8.37
2023-01-19T04:06:52.665Z,8.13
2023-01-19T04:09:20.244Z,7.77
2023-01-19T04:11:47.177Z,8.03
2023-01-19T04:14:14.149Z,8.33
2023-01-19T04:16:41.216Z,8.00
2023-01-19T04:19:08.153Z,8.07
2023-01-19T04:21:35.245Z,7.53
2023-01-19T04:24:02.115Z,7.40
2023-01-19T04:26:29.025Z,7.33
2023-01-19T04:28:55.872Z,7.53
2023-01-19T04:31:23.380Z,7.37
2023-01-19T04:33:50.503Z,7.30
2023-01-19T04:36:17.479Z,7.13
2023-01-19T04:38:46.589Z,7.37
2023-01-19T04:41:13.819Z,6.90
2023-01-19T04:43:40.936Z,7.27
2023-01-19T04:46:07.970Z,7.10
2023-01-19T04:48:35.110Z,7.87
2023-01-19T04:51:02.165Z,7.50
2023-01-19T04:53:29.018Z,6.70
2023-01-19T04:55:56.016Z,6.80
2023-01-19T04:58:23.426Z,7.53
2023-01-19T05:00:51.295Z,7.50
2023-01-19T05:03:19.353Z,7.23
2023-01-19T05:05:46.822Z,7.47
2023-01-19T05:08:13.781Z,7.70
2023-01-19T05:10:40.701Z,7.80
2023-01-19T05:13:07.659Z,7.13
2023-01-19T05:15:34.608Z,7.43
2023-01-19T05:18:01.607Z,6.90
2023-01-19T05:20:28.629Z,7.07
2023-01-19T05:22:55.916Z,8.10
2023-01-19T05:25:22.891Z,7.77
2023-01-19T05:27:49.839Z,7.47
2023-01-19T05:30:17.227Z,8.00
2023-01-19T05:32:44.490Z,8.30
2023-01-19T05:35:12.830Z,8.30
2023-01-19T05:37:39.789Z,8.53
2023-01-19T05:40:07.668Z,8.70
2023-01-19T05:42:34.747Z,8.90
2023-01-19T05:45:01.717Z,10.47
2023-01-19T05:47:32.333Z,9.77
2023-01-19T05:49:59.288Z,9.47
2023-01-19T05:52:26.241Z,9.30
2023-01-19T05:54:55.085Z,9.23
2023-01-19T05:57:22.499Z,10.00
2023-01-19T05:59:49.584Z,9.60
2023-01-19T06:02:16.735Z,8.97
2023-01-19T06:04:43.687Z,9.67
2023-01-19T06:07:10.625Z,8.90
2023-01-19T06:09:37.582Z,10.00
2023-01-19T06:12:04.886Z,9.70
2023-01-19T06:14:32.569Z,10.10
2023-01-19T06:16:59.450Z,10.27
2023-01-19T06:19:26.532Z,10.10
2023-01-19T06:21:53.456Z,8.87
2023-01-19T06:24:20.448Z,8.93
2023-01-19T06:26:47.360Z,9.60
2023-01-19T06:29:14.675Z,11.37
2023-01-19T06:31:42.480Z,10.83
2023-01-19T06:34:09.852Z,10.50
2023-01-19T06:36:37.104Z,10.40
2023-01-19T06:39:06.026Z,9.87
2023-01-19T06:41:33.899Z,10.10
2023-01-19T06:44:01.510Z,10.47
2023-01-19T06:46:29.616Z,8.80
2023-01-19T06:48:56.811Z,8.80
2023-01-19T06:51:24.207Z,8.93
2023-01-19T06:53:51.295Z,9.00
2023-01-19T06:56:18.219Z,8.13
2023-01-19T06:58:47.604Z,8.67
2023-01-19T07:01:14.894Z,9.00
2023-01-19T07:03:42.057Z,8.70
2023-01-19T07:06:09.370Z,8.97
2023-01-19T07:08:37.269Z,9.07
2023-01-19T07:11:23.614Z,9.33
2023-01-19T07:13:55.684Z,10.20
2023-01-19T07:16:24.005Z,9.60
2023-01-19T07:18:51.372Z,10.17
2023-01-19T07:21:19.277Z,9.03
2023-01-19T07:23:49.405Z,9.43
2023-01-19T07:26:18.681Z,8.40
2023-01-19T07:28:47.344Z,9.00
2023-01-19T07:31:23.591Z,8.50
2023-01-19T07:33:50.581Z,8.47
2023-01-19T07:36:17.673Z,8.30
2023-01-19T07:38:44.685Z,8.63
2023-01-19T07:41:12.029Z,8.13
2023-01-19T07:43:38.940Z,8.40
2023-01-19T07:46:07.326Z,8.47
2023-01-19T07:48:34.625Z,7.83
2023-01-19T07:51:05.757Z,8.30
2023-01-19T07:53:32.955Z,8.33
2023-01-19T07:56:00.256Z,9.07
2023-01-19T07:58:27.588Z,8.77
2023-01-19T08:00:54.819Z,8.40
2023-01-19T08:03:22.040Z,9.57
2023-01-19T08:05:53.146Z,9.43
2023-01-19T08:08:20.333Z,8.80
2023-01-19T08:10:50.759Z,8.83
2023-01-19T08:13:18.546Z,8.77
2023-01-19T08:15:48.784Z,9.93
2023-01-19T08:18:15.955Z,10.53
2023-01-19T08:20:43.082Z,10.27
2023-01-19T08:23:10.612Z,10.73
2023-01-19T08:25:42.825Z,11.93
2023-01-19T08:28:10.981Z,13.60
2023-01-19T08:30:38.652Z,11.93
2023-01-19T08:33:08.083Z,10.83
2023-01-19T08:35:37.566Z,11.43
2023-01-19T08:38:06.499Z,11.70
2023-01-19T08:40:36.196Z,12.53
2023-01-19T08:43:08.375Z,12.90
2023-01-19T08:45:37.779Z,13.00
2023-01-19T08:48:06.382Z,12.17
2023-01-19T08:50:34.169Z,13.23
2023-01-19T08:53:03.559Z,12.93
2023-01-19T08:55:30.669Z,13.97
2023-01-19T08:58:00.175Z,13.93
2023-01-19T09:00:27.628Z,15.30
2023-01-19T09:02:54.961Z,13.70
2023-01-19T09:05:22.543Z,15.77
2023-01-19T09:07:49.940Z,16.20
2023-01-19T09:10:17.880Z,18.33
2023-01-19T09:12:46.337Z,20.60
2023-01-19T09:15:14.751Z,17.50
2023-01-19T09:17:42.422Z,18.10
2023-01-19T09:20:10.004Z,19.40
2023-01-19T09:22:37.133Z,19.00
2023-01-19T09:25:04.569Z,18.60
2023-01-19T09:27:31.550Z,19.33
2023-01-19T09:29:58.856Z,20.93
2023-01-19T09:32:25.890Z,21.07
2023-01-19T09:34:54.014Z,21.10
2023-01-19T09:37:20.923Z,19.70
2023-01-19T09:39:47.864Z,19.00
2023-01-19T09:42:33.242Z,18.27
2023-01-19T09:45:02.137Z,19.93
2023-01-19T09:47:30.710Z,18.80
2023-01-19T09:50:05.699Z,21.20
2023-01-19T09:52:37.452Z,21.80
2023-01-19T09:55:04.589Z,20.47
2023-01-19T09:57:32.381Z,21.57
2023-01-19T09:59:59.852Z,23.00
2023-01-19T10:02:36.569Z,23.87
2023-01-19T10:05:12.870Z,25.03
2023-01-19T10:08:03.577Z,24.37
2023-01-19T10:10:35.746Z,24.80
2023-01-19T10:13:08.455Z,24.53
2023-01-19T10:15:50.015Z,25.47
2023-01-19T10:18:43.170Z,27.50
2023-01-19T10:21:14.815Z,29.80
2023-01-19T10:23:44.929Z,28.80
2023-01-19T10:26:24.130Z,31.73
2023-01-19T10:28:55.395Z,33.67
2023-01-19T10:31:24.137Z,32.67
2023-01-19T10:33:52.626Z,32.97
2023-01-19T10:36:25.873Z,33.40
2023-01-19T10:38:52.823Z,32.77
2023-01-19T10:41:26.272Z,32.17
2023-01-19T10:44:04.366Z,33.80
2023-01-19T10:46:34.213Z,32.57
2023-01-19T10:49:01.983Z,30.20
2023-01-19T10:51:28.989Z,32.23
2023-01-19T10:54:04.337Z,33.73
2023-01-19T10:56:36.628Z,33.60
2023-01-19T10:59:06.658Z,35.37
2023-01-19T11:01:37.193Z,34.67
2023-01-19T11:04:27.355Z,38.70
2023-01-19T11:07:14.275Z,33.07
2023-01-19T11:09:41.410Z,33.70
2023-01-19T11:12:20.844Z,34.37
2023-01-19T11:14:50.052Z,34.50
2023-01-19T11:17:23.717Z,31.30
2023-01-19T11:19:59.555Z,33.17
2023-01-19T11:22:34.363Z,32.03
2023-01-19T11:25:03.968Z,32.43
2023-01-19T11:27:34.424Z,33.43
2023-01-19T11:30:24.011Z,34.57
2023-01-19T11:32:51.823Z,35.40
2023-01-19T11:35:38.891Z,37.97
2023-01-19T11:38:21.009Z,34.93
2023-01-19T11:40:56.630Z,35.93
2023-01-19T11:43:36.672Z,39.47
2023-01-19T11:46:15.257Z,32.67
2023-01-19T11:49:04.763Z,31.97
2023-01-19T11:51:39.306Z,31.30
2023-01-19T11:54:19.951Z,30.40
2023-01-19T11:56:49.020Z,30.80
2023-01-19T11:59:16.052Z,31.17
2023-01-19T12:01:51.483Z,29.27
2023-01-19T12:04:27.654Z,27.93
2023-01-19T12:06:56.942Z,28.93
2023-01-19T12:09:23.936Z,28.47
2023-01-19T12:11:58.437Z,27.70
2023-01-19T12:14:43.827Z,26.07
2023-01-19T12:17:20.450Z,26.13
2023-01-19T12:19:55.156Z,25.87
2023-01-19T12:22:24.056Z,26.60
2023-01-19T12:25:29.804Z,24.60
2023-01-19T12:27:59.208Z,25.30
2023-01-19T12:30:29.575Z,23.70
2023-01-19T12:33:22.384Z,23.87
2023-01-19T12:36:03.821Z,25.50
2023-01-19T12:38:39.469Z,22.47
2023-01-19T12:41:20.661Z,22.37
2023-01-19T12:43:49.087Z,21.23
2023-01-19T12:46:23.613Z,23.67
2023-01-19T12:48:50.614Z,24.23
2023-01-19T12:51:25.673Z,23.20
2023-01-19T12:53:57.938Z,24.77
2023-01-19T12:56:31.150Z,23.63
2023-01-19T12:58:58.821Z,24.20
2023-01-19T13:01:27.009Z,24.13
2023-01-19T13:04:09.372Z,24.23
2023-01-19T13:06:48.528Z,25.07
2023-01-19T13:09:37.008Z,24.80
2023-01-19T13:12:26.637Z,24.63
2023-01-19T13:15:33.781Z,27.70
2023-01-19T13:18:01.535Z,26.47
2023-01-19T13:20:43.407Z,24.43
2023-01-19T13:23:18.440Z,25.90
2023-01-19T13:25:50.467Z,25.87
2023-01-19T13:28:19.975Z,23.90
2023-01-19T13:31:00.097Z,23.43
2023-01-19T13:33:38.093Z,23.87
2023-01-19T13:36:40.961Z,24.37
2023-01-19T13:39:41.815Z,24.77
2023-01-19T13:42:23.332Z,26.07
2023-01-19T13:44:58.145Z,23.33
2023-01-19T13:47:38.534Z,24.77
2023-01-19T13:50:06.076Z,27.00
2023-01-19T13:52:37.300Z,24.87
2023-01-19T13:55:14.008Z,27.17
2023-01-19T13:57:42.303Z,27.60
2023-01-19T14:00:13.837Z,26.57
2023-01-19T14:02:57.314Z,27.80
2023-01-19T14:05:31.638Z,26.97
2023-01-19T14:08:11.492Z,29.10
2023-01-19T14:11:16.919Z,28.27
2023-01-19T14:13:44.919Z,29.23
2023-01-19T14:16:17.966Z,29.23
2023-01-19T14:18:44.970Z,30.27
2023-01-19T14:21:18.578Z,29.50
2023-01-19T14:24:10.084Z,30.27
2023-01-19T14:26:46.624Z,31.10
2023-01-19T14:29:38.196Z,31.43
2023-01-19T14:32:20.919Z,32.53
2023-01-19T14:35:12.733Z,32.37
2023-01-19T14:37:48.648Z,30.67
2023-01-19T14:40:21.199Z,31.63
2023-01-19T14:42:58.109Z,30.57
2023-01-19T14:45:34.659Z,31.80
2023-01-19T14:48:13.190Z,28.27
2023-01-19T14:50:50.992Z,29.33
2023-01-19T14:53:29.858Z,29.47
2023-01-19T14:55:59.295Z,28.13
2023-01-19T14:58:29.477Z,27.17
2023-01-19T15:00:56.620Z,26.77
2023-01-19T15:03:31.954Z,27.33
2023-01-19T15:06:16.086Z,26.67
2023-01-19T15:08:44.153Z,28.67
2023-01-19T15:11:17.709Z,26.27
2023-01-19T15:13:45.103Z,27.53
2023-01-19T15:16:12.218Z,26.63
2023-01-19T15:18:39.384Z,24.57
2023-01-19T15:21:06.506Z,25.97
2023-01-19T15:23:33.523Z,25.67
2023-01-19T15:26:02.708Z,23.77
2023-01-19T15:28:30.676Z,24.73
2023-01-19T15:30:59.606Z,24.57
2023-01-19T15:33:30.621Z,23.67
2023-01-19T15:35:57.667Z,26.37
2023-01-19T15:38:24.893Z,31.03
2023-01-19T15:40:51.952Z,27.50
2023-01-19T15:43:18.987Z,26.13
2023-01-19T15:46:06.230Z,27.97
2023-01-19T15:48:33.322Z,27.67
2023-01-19T15:51:00.442Z,28.83
2023-01-19T15:53:27.874Z,26.43
2023-01-19T15:55:56.797Z,27.60
2023-01-19T15:58:26.700Z,26.50
2023-01-19T16:00:58.733Z,25.20
2023-01-19T16:03:26.475Z,34.10
2023-01-19T16:05:53.463Z,27.03
2023-01-19T16:08:22.226Z,26.80
2023-01-19T16:10:49.265Z,25.73
2023-01-19T16:13:16.230Z,24.40
2023-01-19T16:15:43.234Z,24.57
2023-01-19T16:18:10.244Z,24.77
2023-01-19T16:20:37.152Z,25.60
2023-01-19T16:23:19.346Z,25.33
2023-01-19T16:25:58.624Z,24.67
2023-01-19T16:28:26.884Z,25.53
2023-01-19T16:30:54.325Z,24.50
2023-01-19T16:33:21.346Z,25.83
2023-01-19T16:35:48.371Z,29.10
2023-01-19T16:38:15.353Z,24.90
2023-01-19T16:40:45.324Z,29.37
2023-01-19T16:43:13.403Z,24.33
2023-01-19T16:46:00.667Z,25.47
2023-01-19T16:48:28.094Z,24.07
2023-01-19T16:51:07.101Z,24.67
2023-01-19T16:53:35.486Z,23.50
2023-01-19T16:56:07.199Z,23.37
2023-01-19T16:58:34.646Z,22.57
2023-01-19T17:01:07.365Z,23.50
2023-01-19T17:03:34.416Z,22.47
2023-01-19T17:06:01.503Z,23.40
2023-01-19T17:08:28.666Z,24.63
2023-01-19T17:10:56.120Z,25.03
2023-01-19T17:13:23.117Z,24.90
2023-01-19T17:15:50.271Z,24.33
2023-01-19T17:18:17.207Z,22.07
2023-01-19T17:20:44.305Z,39.10
2023-01-19T17:23:11.196Z,23.67
2023-01-19T17:25:38.221Z,22.17
2023-01-19T17:28:05.375Z,26.33
2023-01-19T17:30:32.975Z,24.00
2023-01-19T17:33:00.007Z,23.30
2023-01-19T17:35:29.517Z,23.53
2023-01-19T17:37:56.854Z,26.03
2023-01-19T17:40:26.104Z,30.67
2023-01-19T17:42:53.140Z,23.47
2023-01-19T17:45:20.134Z,25.17
2023-01-19T17:47:50.590Z,31.03
2023-01-19T17:50:18.015Z,24.73
2023-01-19T17:52:45.118Z,24.67
2023-01-19T17:55:12.140Z,26.13
2023-01-19T17:57:39.132Z,23.40
2023-01-19T18:00:07.884Z,27.77
2023-01-19T18:02:40.208Z,26.00
2023-01-19T18:05:12.570Z,23.73
2023-01-19T18:07:40.493Z,22.83
2023-01-19T18:10:08.354Z,23.83
2023-01-19T18:12:35.576Z,23.17
2023-01-19T18:15:03.007Z,24.07
2023-01-19T18:17:33.203Z,23.17
2023-01-19T18:20:00.300Z,24.50
2023-01-19T18:22:27.285Z,23.90
2023-01-19T18:24:54.299Z,23.20
2023-01-19T18:27:22.017Z,23.27
2023-01-19T18:29:48.971Z,23.83
2023-01-19T18:32:16.023Z,24.40
2023-01-19T18:34:43.030Z,23.90
2023-01-19T18:37:10.016Z,23.20
2023-01-19T18:39:36.993Z,23.93
2023-01-19T18:42:03.975Z,26.07
2023-01-19T18:44:31.157Z,26.23
2023-01-19T18:46:58.276Z,25.07
2023-01-19T18:49:25.297Z,23.30
2023-01-19T18:51:52.330Z,24.63
2023-01-19T18:54:19.986Z,25.47
2023-01-19T18:56:49.491Z,24.53
2023-01-19T18:59:16.439Z,25.63
2023-01-19T19:01:43.544Z,23.47
2023-01-19T19:04:10.508Z,25.77
2023-01-19T19:06:37.523Z,26.17
2023-01-19T19:09:05.248Z,26.10
2023-01-19T19:11:32.522Z,25.60
2023-01-19T19:14:02.141Z,26.50
2023-01-19T19:16:31.619Z,30.70
2023-01-19T19:18:59.704Z,28.20
2023-01-19T19:21:27.072Z,28.47
2023-01-19T19:23:56.309Z,28.73
2023-01-19T19:26:24.312Z,33.63
2023-01-19T19:28:51.411Z,30.53
2023-01-19T19:31:21.852Z,30.30
2023-01-19T19:33:51.308Z,27.07
2023-01-19T19:36:20.066Z,26.43
2023-01-19T19:38:48.261Z,27.07
2023-01-19T19:41:19.850Z,25.93
2023-01-19T19:43:49.634Z,27.83
2023-01-19T19:46:20.012Z,29.07
2023-01-19T19:48:48.534Z,28.90
2023-01-19T19:51:25.448Z,27.90
2023-01-19T19:53:57.694Z,30.27
2023-01-19T19:56:28.034Z,29.17
2023-01-19T19:58:56.502Z,28.00
2023-01-19T20:01:32.632Z,27.87
2023-01-19T20:04:08.522Z,26.03
2023-01-19T20:06:38.964Z,28.33
2023-01-19T20:09:09.234Z,26.63
2023-01-19T20:11:39.899Z,27.97
2023-01-19T20:14:08.509Z,28.73
2023-01-19T20:16:36.193Z,27.97
2023-01-19T20:19:04.051Z,28.73
2023-01-19T20:21:33.883Z,31.50
2023-01-19T20:24:03.163Z,30.53
2023-01-19T20:26:35.775Z,28.97
2023-01-19T20:29:07.885Z,29.53
2023-01-19T20:31:38.429Z,28.57
2023-01-19T20:34:07.977Z,27.60
2023-01-19T20:36:35.172Z,28.40
2023-01-19T20:39:10.153Z,29.37
2023-01-19T20:41:43.489Z,27.33
2023-01-19T20:44:16.009Z,27.87
2023-01-19T20:46:43.655Z,28.43
2023-01-19T20:49:13.181Z,28.90
2023-01-19T20:51:43.501Z,27.10
2023-01-19T20:54:15.238Z,28.37
2023-01-19T20:56:42.219Z,27.43
2023-01-19T20:59:12.831Z,27.27
2023-01-19T21:01:43.101Z,29.13
2023-01-19T21:04:11.058Z,29.63
2023-01-19T21:06:38.496Z,31.60
2023-01-19T21:09:06.126Z,31.40
2023-01-19T21:11:33.329Z,29.23
2023-01-19T21:14:00.537Z,28.17
2023-01-19T21:16:31.751Z,29.37
2023-01-19T21:18:59.072Z,29.73
2023-01-19T21:21:31.380Z,29.57
2023-01-19T21:24:00.534Z,30.60
2023-01-19T21:26:31.525Z,30.30
2023-01-19T21:29:00.023Z,28.97
2023-01-19T21:31:28.086Z,30.33
2023-01-19T21:33:56.072Z,30.53
2023-01-19T21:36:23.909Z,31.53
2023-01-19T21:39:00.502Z,30.27
2023-01-19T21:41:31.111Z,30.13
2023-01-19T21:44:00.059Z,31.33
2023-01-19T21:46:30.593Z,29.47
2023-01-19T21:48:59.929Z,31.10
2023-01-19T21:51:28.005Z,30.47
2023-01-19T21:53:59.389Z,31.17
2023-01-19T21:56:33.357Z,30.93
2023-01-19T21:59:04.266Z,29.30
2023-01-19T22:01:32.794Z,28.87
2023-01-19T22:04:00.228Z,28.87
2023-01-19T22:06:28.177Z,28.13
2023-01-19T22:08:59.224Z,30.30
2023-01-19T22:11:26.767Z,37.40
2023-01-19T22:13:54.780Z,33.70
2023-01-19T22:16:23.402Z,28.77
2023-01-19T22:18:54.129Z,29.60
2023-01-19T22:21:24.311Z,29.27
2023-01-19T22:23:53.804Z,29.20
2023-01-19T22:26:20.809Z,28.60
2023-01-19T22:28:48.396Z,29.40
2023-01-19T22:31:18.018Z,29.43
2023-01-19T22:33:45.355Z,29.17
2023-01-19T22:36:12.441Z,28.17
2023-01-19T22:38:40.616Z,30.13
2023-01-19T22:41:16.448Z,28.13
2023-01-19T22:43:43.970Z,29.83
2023-01-19T22:46:11.124Z,29.07
2023-01-19T22:48:38.531Z,27.90
2023-01-19T22:51:05.548Z,30.67
2023-01-19T22:53:32.839Z,30.97
2023-01-19T22:56:00.001Z,30.63
2023-01-19T22:58:26.916Z,33.13
2023-01-19T23:00:53.909Z,30.87
2023-01-19T23:03:20.903Z,31.40
2023-01-19T23:05:47.939Z,31.30
2023-01-19T23:08:14.922Z,31.80
2023-01-19T23:10:41.829Z,29.97
2023-01-19T23:13:08.775Z,30.70
2023-01-19T23:15:35.816Z,31.60
2023-01-19T23:18:02.915Z,30.33
2023-01-19T23:20:29.861Z,29.37
2023-01-19T23:22:56.877Z,30.20
2023-01-19T23:25:23.810Z,29.40
2023-01-19T23:27:50.849Z,29.67
2023-01-19T23:30:17.907Z,30.13
2023-01-19T23:32:49.285Z,28.73
2023-01-19T23:35:17.031Z,28.60
2023-01-19T23:37:44.053Z,27.60
2023-01-19T23:40:11.790Z,29.30
2023-01-19T23:42:38.777Z,27.70
2023-01-19T23:45:06.748Z,27.20
2023-01-19T23:47:35.489Z,26.50
2023-01-19T23:50:06.238Z,26.13
2023-01-19T23:52:33.179Z,26.57
2023-01-19T23:55:00.126Z,26.30
2023-01-19T23:57:27.062Z,24.97
2023-01-19T23:59:53.988Z,24.57
